sensor_id;sensor_type;location;lat;lon;timestamp;P1;durP1;ratioP1;P2;durP2;ratioP2
65189;SDS011;51777;53.570;9.984;2023-12-20T00:01:02;10.70;;;1.38;;
65189;SDS011;51777;53.570;9.984;2023-12-20T00:03:27;6.72;;;1.40;;
65189;SDS011;51777;53.570;9.984;2023-12-20T00:05:52;5.50;;;1.23;;
65189;SDS011;51777;53.570;9.984;2023-12-20T00:08:18;11.27;;;1.75;;
65189;SDS011;51777;53.570;9.984;2023-12-20T00:10:44;9.10;;;1.20;;
65189;SDS011;51777;53.570;9.984;2023-12-20T00:13:09;15.55;;;1.95;;
65189;SDS011;51777;53.570;9.984;2023-12-20T00:15:37;15.05;;;2.03;;
65189;SDS011;51777;53.570;9.984;2023-12-20T00:18:03;7.75;;;1.70;;
65189;SDS011;51777;53.570;9.984;2023-12-20T00:20:28;15.27;;;1.95;;
65189;SDS011;51777;53.570;9.984;2023-12-20T00:22:55;11.00;;;1.77;;
65189;SDS011;51777;53.570;9.984;2023-12-20T00:25:22;10.50;;;1.85;;
65189;SDS011;51777;53.570;9.984;2023-12-20T00:27:48;8.80;;;1.40;;
65189;SDS011;51777;53.570;9.984;2023-12-20T00:30:14;5.80;;;1.30;;
65189;SDS011;51777;53.570;9.984;2023-12-20T00:32:39;7.53;;;1.80;;
65189;SDS011;51777;53.570;9.984;2023-12-20T00:35:11;4.03;;;1.15;;
65189;SDS011;51777;53.570;9.984;2023-12-20T00:37:39;16.05;;;1.73;;
65189;SDS011;51777;53.570;9.984;2023-12-20T00:40:05;9.77;;;2.17;;
65189;SDS011;51777;53.570;9.984;2023-12-20T00:42:31;11.45;;;2.00;;
65189;SDS011;51777;53.570;9.984;2023-12-20T00:44:58;13.23;;;1.70;;
65189;SDS011;51777;53.570;9.984;2023-12-20T00:47:24;11.88;;;1.85;;
65189;SDS011;51777;53.570;9.984;2023-12-20T00:49:49;6.65;;;1.10;;
65189;SDS011;51777;53.570;9.984;2023-12-20T00:52:15;14.63;;;2.10;;
65189;SDS011;51777;53.570;9.984;2023-12-20T00:54:42;8.57;;;1.83;;
65189;SDS011;51777;53.570;9.984;2023-12-20T00:57:07;11.93;;;1.90;;
65189;SDS011;51777;53.570;9.984;2023-12-20T00:59:33;12.10;;;1.92;;
65189;SDS011;51777;53.570;9.984;2023-12-20T01:01:58;15.73;;;2.25;;
65189;SDS011;51777;53.570;9.984;2023-12-20T01:04:24;7.57;;;1.23;;
65189;SDS011;51777;53.570;9.984;2023-12-20T01:06:49;8.75;;;1.30;;
65189;SDS011;51777;53.570;9.984;2023-12-20T01:09:15;11.40;;;1.98;;
65189;SDS011;51777;53.570;9.984;2023-12-20T01:11:40;5.22;;;1.60;;
65189;SDS011;51777;53.570;9.984;2023-12-20T01:14:05;8.55;;;1.45;;
65189;SDS011;51777;53.570;9.984;2023-12-20T01:16:31;7.00;;;1.42;;
65189;SDS011;51777;53.570;9.984;2023-12-20T01:18:56;5.10;;;1.17;;
65189;SDS011;51777;53.570;9.984;2023-12-20T01:21:22;7.30;;;1.45;;
65189;SDS011;51777;53.570;9.984;2023-12-20T01:23:47;11.77;;;1.55;;
65189;SDS011;51777;53.570;9.984;2023-12-20T01:26:12;9.30;;;1.60;;
65189;SDS011;51777;53.570;9.984;2023-12-20T01:28:40;11.55;;;2.00;;
65189;SDS011;51777;53.570;9.984;2023-12-20T01:31:05;12.70;;;1.50;;
65189;SDS011;51777;53.570;9.984;2023-12-20T01:33:31;6.63;;;1.40;;
65189;SDS011;51777;53.570;9.984;2023-12-20T01:35:56;9.38;;;1.42;;
65189;SDS011;51777;53.570;9.984;2023-12-20T01:38:22;12.88;;;1.40;;
65189;SDS011;51777;53.570;9.984;2023-12-20T01:40:47;11.95;;;1.58;;
65189;SDS011;51777;53.570;9.984;2023-12-20T01:43:12;10.88;;;1.77;;
65189;SDS011;51777;53.570;9.984;2023-12-20T01:45:38;14.68;;;1.67;;
65189;SDS011;51777;53.570;9.984;2023-12-20T01:48:03;10.43;;;1.88;;
65189;SDS011;51777;53.570;9.984;2023-12-20T01:50:30;16.83;;;1.98;;
65189;SDS011;51777;53.570;9.984;2023-12-20T01:52:57;20.58;;;2.05;;
65189;SDS011;51777;53.570;9.984;2023-12-20T01:55:25;8.50;;;1.98;;
65189;SDS011;51777;53.570;9.984;2023-12-20T01:57:51;13.52;;;2.30;;
65189;SDS011;51777;53.570;9.984;2023-12-20T02:00:16;13.15;;;2.20;;
65189;SDS011;51777;53.570;9.984;2023-12-20T02:02:43;8.15;;;1.80;;
65189;SDS011;51777;53.570;9.984;2023-12-20T02:05:10;20.77;;;2.20;;
65189;SDS011;51777;53.570;9.984;2023-12-20T02:07:36;13.05;;;1.90;;
65189;SDS011;51777;53.570;9.984;2023-12-20T02:10:02;4.05;;;1.05;;
65189;SDS011;51777;53.570;9.984;2023-12-20T02:12:29;10.85;;;2.10;;
65189;SDS011;51777;53.570;9.984;2023-12-20T02:14:54;12.63;;;1.52;;
65189;SDS011;51777;53.570;9.984;2023-12-20T02:17:20;11.45;;;1.90;;
65189;SDS011;51777;53.570;9.984;2023-12-20T02:19:45;3.75;;;1.17;;
65189;SDS011;51777;53.570;9.984;2023-12-20T02:22:11;4.18;;;1.30;;
65189;SDS011;51777;53.570;9.984;2023-12-20T02:24:37;11.23;;;1.70;;
65189;SDS011;51777;53.570;9.984;2023-12-20T02:27:03;4.55;;;1.17;;
65189;SDS011;51777;53.570;9.984;2023-12-20T02:29:32;11.60;;;1.30;;
65189;SDS011;51777;53.570;9.984;2023-12-20T02:31:58;8.65;;;1.40;;
65189;SDS011;51777;53.570;9.984;2023-12-20T02:34:23;17.20;;;1.85;;
65189;SDS011;51777;53.570;9.984;2023-12-20T02:36:49;9.90;;;1.67;;
65189;SDS011;51777;53.570;9.984;2023-12-20T02:39:14;8.05;;;1.70;;
65189;SDS011;51777;53.570;9.984;2023-12-20T02:41:40;13.00;;;2.13;;
65189;SDS011;51777;53.570;9.984;2023-12-20T02:44:05;13.15;;;1.50;;
65189;SDS011;51777;53.570;9.984;2023-12-20T02:46:31;9.35;;;1.10;;
65189;SDS011;51777;53.570;9.984;2023-12-20T02:48:56;8.02;;;1.52;;
65189;SDS011;51777;53.570;9.984;2023-12-20T02:51:21;6.35;;;1.35;;
65189;SDS011;51777;53.570;9.984;2023-12-20T02:53:47;9.75;;;1.83;;
65189;SDS011;51777;53.570;9.984;2023-12-20T02:56:12;4.63;;;1.30;;
65189;SDS011;51777;53.570;9.984;2023-12-20T02:58:39;9.35;;;1.60;;
65189;SDS011;51777;53.570;9.984;2023-12-20T03:01:10;8.73;;;1.70;;
65189;SDS011;51777;53.570;9.984;2023-12-20T03:03:45;12.45;;;1.73;;
65189;SDS011;51777;53.570;9.984;2023-12-20T03:06:10;10.75;;;1.67;;
65189;SDS011;51777;53.570;9.984;2023-12-20T03:08:36;4.60;;;1.30;;
65189;SDS011;51777;53.570;9.984;2023-12-20T03:11:05;14.93;;;2.20;;
65189;SDS011;51777;53.570;9.984;2023-12-20T03:13:30;10.20;;;1.88;;
65189;SDS011;51777;53.570;9.984;2023-12-20T03:15:55;10.80;;;1.55;;
65189;SDS011;51777;53.570;9.984;2023-12-20T03:18:21;8.75;;;1.45;;
65189;SDS011;51777;53.570;9.984;2023-12-20T03:20:46;11.80;;;1.55;;
65189;SDS011;51777;53.570;9.984;2023-12-20T03:23:14;7.85;;;1.77;;
65189;SDS011;51777;53.570;9.984;2023-12-20T03:25:40;15.55;;;1.88;;
65189;SDS011;51777;53.570;9.984;2023-12-20T03:28:05;6.95;;;2.15;;
65189;SDS011;51777;53.570;9.984;2023-12-20T03:30:31;3.08;;;1.17;;
65189;SDS011;51777;53.570;9.984;2023-12-20T03:32:56;12.18;;;2.22;;
65189;SDS011;51777;53.570;9.984;2023-12-20T03:35:21;10.02;;;1.60;;
65189;SDS011;51777;53.570;9.984;2023-12-20T03:37:47;6.65;;;1.60;;
65189;SDS011;51777;53.570;9.984;2023-12-20T03:40:12;10.05;;;1.38;;
65189;SDS011;51777;53.570;9.984;2023-12-20T03:42:38;10.75;;;1.70;;
65189;SDS011;51777;53.570;9.984;2023-12-20T03:45:03;16.40;;;2.08;;
65189;SDS011;51777;53.570;9.984;2023-12-20T03:47:29;6.00;;;1.25;;
65189;SDS011;51777;53.570;9.984;2023-12-20T03:49:54;6.78;;;1.33;;
65189;SDS011;51777;53.570;9.984;2023-12-20T03:52:19;6.18;;;1.42;;
65189;SDS011;51777;53.570;9.984;2023-12-20T03:54:45;11.77;;;2.22;;
65189;SDS011;51777;53.570;9.984;2023-12-20T03:57:10;13.57;;;1.98;;
65189;SDS011;51777;53.570;9.984;2023-12-20T03:59:36;15.23;;;2.10;;
65189;SDS011;51777;53.570;9.984;2023-12-20T04:02:02;6.45;;;1.38;;
65189;SDS011;51777;53.570;9.984;2023-12-20T04:04:27;8.07;;;1.77;;
65189;SDS011;51777;53.570;9.984;2023-12-20T04:06:53;7.25;;;2.03;;
65189;SDS011;51777;53.570;9.984;2023-12-20T04:09:18;11.85;;;1.80;;
65189;SDS011;51777;53.570;9.984;2023-12-20T04:11:44;5.68;;;1.15;;
65189;SDS011;51777;53.570;9.984;2023-12-20T04:14:09;10.00;;;2.08;;
65189;SDS011;51777;53.570;9.984;2023-12-20T04:16:35;5.28;;;1.30;;
65189;SDS011;51777;53.570;9.984;2023-12-20T04:19:00;8.25;;;1.40;;
65189;SDS011;51777;53.570;9.984;2023-12-20T04:21:26;11.77;;;2.58;;
65189;SDS011;51777;53.570;9.984;2023-12-20T04:23:51;5.57;;;1.27;;
65189;SDS011;51777;53.570;9.984;2023-12-20T04:26:17;9.05;;;1.60;;
65189;SDS011;51777;53.570;9.984;2023-12-20T04:28:42;10.55;;;1.60;;
65189;SDS011;51777;53.570;9.984;2023-12-20T04:31:08;8.60;;;1.58;;
65189;SDS011;51777;53.570;9.984;2023-12-20T04:33:35;7.20;;;1.90;;
65189;SDS011;51777;53.570;9.984;2023-12-20T04:36:00;6.90;;;1.70;;
65189;SDS011;51777;53.570;9.984;2023-12-20T04:38:26;3.03;;;1.20;;
65189;SDS011;51777;53.570;9.984;2023-12-20T04:40:51;11.07;;;2.40;;
65189;SDS011;51777;53.570;9.984;2023-12-20T04:43:17;11.57;;;1.90;;
65189;SDS011;51777;53.570;9.984;2023-12-20T04:45:42;7.90;;;1.50;;
65189;SDS011;51777;53.570;9.984;2023-12-20T04:48:08;5.55;;;1.40;;
65189;SDS011;51777;53.570;9.984;2023-12-20T04:50:33;6.78;;;1.80;;
65189;SDS011;51777;53.570;9.984;2023-12-20T04:52:59;8.25;;;1.38;;
65189;SDS011;51777;53.570;9.984;2023-12-20T04:55:24;9.18;;;2.05;;
65189;SDS011;51777;53.570;9.984;2023-12-20T04:57:50;11.60;;;1.80;;
65189;SDS011;51777;53.570;9.984;2023-12-20T05:00:15;15.50;;;2.05;;
65189;SDS011;51777;53.570;9.984;2023-12-20T05:02:41;7.18;;;1.50;;
65189;SDS011;51777;53.570;9.984;2023-12-20T05:05:06;15.48;;;1.92;;
65189;SDS011;51777;53.570;9.984;2023-12-20T05:07:32;5.50;;;1.35;;
65189;SDS011;51777;53.570;9.984;2023-12-20T05:09:58;4.30;;;1.67;;
65189;SDS011;51777;53.570;9.984;2023-12-20T05:12:24;10.15;;;1.92;;
65189;SDS011;51777;53.570;9.984;2023-12-20T05:14:49;8.57;;;2.28;;
65189;SDS011;51777;53.570;9.984;2023-12-20T05:17:15;6.80;;;1.63;;
65189;SDS011;51777;53.570;9.984;2023-12-20T05:19:40;7.80;;;1.60;;
65189;SDS011;51777;53.570;9.984;2023-12-20T05:22:05;4.47;;;1.45;;
65189;SDS011;51777;53.570;9.984;2023-12-20T05:24:31;11.32;;;1.95;;
65189;SDS011;51777;53.570;9.984;2023-12-20T05:26:56;6.82;;;1.95;;
65189;SDS011;51777;53.570;9.984;2023-12-20T05:29:22;5.97;;;1.92;;
65189;SDS011;51777;53.570;9.984;2023-12-20T05:31:47;5.57;;;1.70;;
65189;SDS011;51777;53.570;9.984;2023-12-20T05:34:13;8.60;;;1.88;;
65189;SDS011;51777;53.570;9.984;2023-12-20T05:36:38;20.25;;;3.17;;
65189;SDS011;51777;53.570;9.984;2023-12-20T05:39:04;2.85;;;1.27;;
65189;SDS011;51777;53.570;9.984;2023-12-20T05:41:30;10.25;;;1.65;;
65189;SDS011;51777;53.570;9.984;2023-12-20T05:43:56;12.40;;;1.77;;
65189;SDS011;51777;53.570;9.984;2023-12-20T05:46:23;12.85;;;1.95;;
65189;SDS011;51777;53.570;9.984;2023-12-20T05:48:48;14.02;;;2.03;;
65189;SDS011;51777;53.570;9.984;2023-12-20T05:51:14;10.98;;;2.10;;
65189;SDS011;51777;53.570;9.984;2023-12-20T05:53:39;9.85;;;1.95;;
65189;SDS011;51777;53.570;9.984;2023-12-20T05:56:05;12.02;;;2.30;;
65189;SDS011;51777;53.570;9.984;2023-12-20T05:58:31;7.18;;;1.50;;
65189;SDS011;51777;53.570;9.984;2023-12-20T06:00:59;7.60;;;2.20;;
65189;SDS011;51777;53.570;9.984;2023-12-20T06:03:25;8.70;;;1.70;;
65189;SDS011;51777;53.570;9.984;2023-12-20T06:05:50;6.47;;;1.80;;
65189;SDS011;51777;53.570;9.984;2023-12-20T06:08:16;18.98;;;2.40;;
65189;SDS011;51777;53.570;9.984;2023-12-20T06:10:41;10.65;;;1.90;;
65189;SDS011;51777;53.570;9.984;2023-12-20T06:13:07;6.25;;;2.08;;
65189;SDS011;51777;53.570;9.984;2023-12-20T06:15:32;10.50;;;1.63;;
65189;SDS011;51777;53.570;9.984;2023-12-20T06:17:58;9.30;;;1.92;;
65189;SDS011;51777;53.570;9.984;2023-12-20T06:20:23;9.50;;;1.80;;
65189;SDS011;51777;53.570;9.984;2023-12-20T06:22:50;15.18;;;2.05;;
65189;SDS011;51777;53.570;9.984;2023-12-20T06:25:15;6.28;;;1.95;;
65189;SDS011;51777;53.570;9.984;2023-12-20T06:27:43;13.25;;;2.00;;
65189;SDS011;51777;53.570;9.984;2023-12-20T06:30:09;7.00;;;1.85;;
65189;SDS011;51777;53.570;9.984;2023-12-20T06:32:35;11.45;;;1.88;;
65189;SDS011;51777;53.570;9.984;2023-12-20T06:35:00;8.23;;;1.33;;
65189;SDS011;51777;53.570;9.984;2023-12-20T06:37:26;7.78;;;1.85;;
65189;SDS011;51777;53.570;9.984;2023-12-20T06:39:51;11.00;;;2.05;;
65189;SDS011;51777;53.570;9.984;2023-12-20T06:42:17;11.77;;;2.10;;
65189;SDS011;51777;53.570;9.984;2023-12-20T06:44:42;9.48;;;2.08;;
65189;SDS011;51777;53.570;9.984;2023-12-20T06:47:08;12.27;;;1.95;;
65189;SDS011;51777;53.570;9.984;2023-12-20T06:49:33;10.10;;;2.33;;
65189;SDS011;51777;53.570;9.984;2023-12-20T06:51:58;6.88;;;1.85;;
65189;SDS011;51777;53.570;9.984;2023-12-20T06:54:24;9.40;;;1.70;;
65189;SDS011;51777;53.570;9.984;2023-12-20T06:56:49;12.50;;;2.63;;
65189;SDS011;51777;53.570;9.984;2023-12-20T06:59:15;10.13;;;2.28;;
65189;SDS011;51777;53.570;9.984;2023-12-20T07:01:40;8.18;;;1.60;;
65189;SDS011;51777;53.570;9.984;2023-12-20T07:04:06;5.32;;;1.45;;
65189;SDS011;51777;53.570;9.984;2023-12-20T07:06:32;5.03;;;1.65;;
65189;SDS011;51777;53.570;9.984;2023-12-20T07:08:58;10.02;;;1.67;;
65189;SDS011;51777;53.570;9.984;2023-12-20T07:11:23;6.70;;;1.55;;
65189;SDS011;51777;53.570;9.984;2023-12-20T07:13:49;8.80;;;2.50;;
65189;SDS011;51777;53.570;9.984;2023-12-20T07:16:15;6.88;;;2.17;;
65189;SDS011;51777;53.570;9.984;2023-12-20T07:18:40;13.50;;;2.15;;
65189;SDS011;51777;53.570;9.984;2023-12-20T07:21:05;5.88;;;1.52;;
65189;SDS011;51777;53.570;9.984;2023-12-20T07:23:33;11.68;;;2.75;;
65189;SDS011;51777;53.570;9.984;2023-12-20T07:25:58;10.95;;;2.20;;
65189;SDS011;51777;53.570;9.984;2023-12-20T07:28:24;13.90;;;2.88;;
65189;SDS011;51777;53.570;9.984;2023-12-20T07:30:51;19.35;;;2.80;;
65189;SDS011;51777;53.570;9.984;2023-12-20T07:33:16;9.55;;;1.88;;
65189;SDS011;51777;53.570;9.984;2023-12-20T07:35:41;14.48;;;2.17;;
65189;SDS011;51777;53.570;9.984;2023-12-20T07:38:07;15.50;;;2.17;;
65189;SDS011;51777;53.570;9.984;2023-12-20T07:40:32;11.77;;;2.50;;
65189;SDS011;51777;53.570;9.984;2023-12-20T07:42:58;10.38;;;2.28;;
65189;SDS011;51777;53.570;9.984;2023-12-20T07:45:23;14.40;;;2.55;;
65189;SDS011;51777;53.570;9.984;2023-12-20T07:47:49;8.52;;;1.92;;
65189;SDS011;51777;53.570;9.984;2023-12-20T07:50:15;17.77;;;2.80;;
65189;SDS011;51777;53.570;9.984;2023-12-20T07:52:40;6.82;;;2.08;;
65189;SDS011;51777;53.570;9.984;2023-12-20T07:55:06;13.43;;;2.17;;
65189;SDS011;51777;53.570;9.984;2023-12-20T07:57:32;9.88;;;1.90;;
65189;SDS011;51777;53.570;9.984;2023-12-20T07:59:57;9.23;;;1.98;;
65189;SDS011;51777;53.570;9.984;2023-12-20T08:02:23;10.15;;;2.15;;
65189;SDS011;51777;53.570;9.984;2023-12-20T08:04:48;16.52;;;2.53;;
65189;SDS011;51777;53.570;9.984;2023-12-20T08:07:13;19.45;;;2.65;;
65189;SDS011;51777;53.570;9.984;2023-12-20T08:09:49;12.80;;;2.50;;
65189;SDS011;51777;53.570;9.984;2023-12-20T08:12:14;5.68;;;1.27;;
65189;SDS011;51777;53.570;9.984;2023-12-20T08:14:42;11.52;;;2.25;;
65189;SDS011;51777;53.570;9.984;2023-12-20T08:17:07;5.95;;;1.73;;
65189;SDS011;51777;53.570;9.984;2023-12-20T08:19:32;5.72;;;1.92;;
65189;SDS011;51777;53.570;9.984;2023-12-20T08:21:58;19.13;;;2.60;;
65189;SDS011;51777;53.570;9.984;2023-12-20T08:24:23;16.65;;;2.70;;
65189;SDS011;51777;53.570;9.984;2023-12-20T08:26:50;13.35;;;2.58;;
65189;SDS011;51777;53.570;9.984;2023-12-20T08:29:15;16.00;;;2.55;;
65189;SDS011;51777;53.570;9.984;2023-12-20T08:31:41;7.40;;;1.90;;
65189;SDS011;51777;53.570;9.984;2023-12-20T08:34:06;9.10;;;2.92;;
65189;SDS011;51777;53.570;9.984;2023-12-20T08:36:32;8.05;;;2.20;;
65189;SDS011;51777;53.570;9.984;2023-12-20T08:39:00;7.32;;;2.05;;
65189;SDS011;51777;53.570;9.984;2023-12-20T08:41:35;13.50;;;2.72;;
65189;SDS011;51777;53.570;9.984;2023-12-20T08:44:00;12.43;;;1.98;;
65189;SDS011;51777;53.570;9.984;2023-12-20T08:46:26;7.78;;;2.10;;
65189;SDS011;51777;53.570;9.984;2023-12-20T08:48:55;7.72;;;2.05;;
65189;SDS011;51777;53.570;9.984;2023-12-20T08:51:20;14.65;;;2.35;;
65189;SDS011;51777;53.570;9.984;2023-12-20T08:53:48;12.27;;;2.85;;
65189;SDS011;51777;53.570;9.984;2023-12-20T08:56:14;12.90;;;2.40;;
65189;SDS011;51777;53.570;9.984;2023-12-20T08:58:40;12.18;;;3.20;;
65189;SDS011;51777;53.570;9.984;2023-12-20T09:01:05;11.57;;;2.85;;
65189;SDS011;51777;53.570;9.984;2023-12-20T09:03:31;10.50;;;2.10;;
65189;SDS011;51777;53.570;9.984;2023-12-20T09:05:57;9.35;;;1.95;;
65189;SDS011;51777;53.570;9.984;2023-12-20T09:08:22;10.05;;;2.17;;
65189;SDS011;51777;53.570;9.984;2023-12-20T09:10:48;4.25;;;1.77;;
65189;SDS011;51777;53.570;9.984;2023-12-20T09:13:13;7.43;;;1.75;;
65189;SDS011;51777;53.570;9.984;2023-12-20T09:15:39;8.38;;;1.63;;
65189;SDS011;51777;53.570;9.984;2023-12-20T09:18:05;14.50;;;1.95;;
65189;SDS011;51777;53.570;9.984;2023-12-20T09:20:31;9.48;;;1.98;;
65189;SDS011;51777;53.570;9.984;2023-12-20T09:23:00;9.98;;;1.63;;
65189;SDS011;51777;53.570;9.984;2023-12-20T09:25:28;8.00;;;1.85;;
65189;SDS011;51777;53.570;9.984;2023-12-20T09:27:54;7.95;;;1.90;;
65189;SDS011;51777;53.570;9.984;2023-12-20T09:30:20;2.72;;;1.05;;
65189;SDS011;51777;53.570;9.984;2023-12-20T09:32:46;7.88;;;1.20;;
65189;SDS011;51777;53.570;9.984;2023-12-20T09:35:18;2.85;;;1.02;;
65189;SDS011;51777;53.570;9.984;2023-12-20T09:37:43;3.65;;;1.00;;
65189;SDS011;51777;53.570;9.984;2023-12-20T09:40:10;4.18;;;1.40;;
65189;SDS011;51777;53.570;9.984;2023-12-20T09:45:46;2.35;;;0.80;;
65189;SDS011;51777;53.570;9.984;2023-12-20T09:48:13;3.88;;;1.00;;
65189;SDS011;51777;53.570;9.984;2023-12-20T09:50:42;2.10;;;1.00;;
65189;SDS011;51777;53.570;9.984;2023-12-20T09:53:09;1.20;;;0.73;;
65189;SDS011;51777;53.570;9.984;2023-12-20T09:55:36;4.30;;;1.00;;
65189;SDS011;51777;53.570;9.984;2023-12-20T09:58:06;1.20;;;0.70;;
65189;SDS011;51777;53.570;9.984;2023-12-20T10:00:33;1.20;;;0.70;;
65189;SDS011;51777;53.570;9.984;2023-12-20T10:03:01;0.50;;;0.50;;
65189;SDS011;51777;53.570;9.984;2023-12-20T10:05:28;6.50;;;0.85;;
65189;SDS011;51777;53.570;9.984;2023-12-20T10:07:57;2.28;;;0.90;;
65189;SDS011;51777;53.570;9.984;2023-12-20T10:10:24;2.33;;;0.70;;
65189;SDS011;51777;53.570;9.984;2023-12-20T10:13:05;1.60;;;0.57;;
65189;SDS011;51777;53.570;9.984;2023-12-20T10:15:34;5.70;;;1.10;;
65189;SDS011;51777;53.570;9.984;2023-12-20T10:18:01;1.30;;;0.63;;
65189;SDS011;51777;53.570;9.984;2023-12-20T10:20:28;1.90;;;0.98;;
65189;SDS011;51777;53.570;9.984;2023-12-20T10:22:58;2.22;;;0.73;;
65189;SDS011;51777;53.570;9.984;2023-12-20T10:25:24;0.50;;;0.50;;
65189;SDS011;51777;53.570;9.984;2023-12-20T10:30:46;3.60;;;0.70;;
65189;SDS011;51777;53.570;9.984;2023-12-20T10:33:27;1.48;;;0.50;;
65189;SDS011;51777;53.570;9.984;2023-12-20T10:35:59;3.25;;;0.80;;
65189;SDS011;51777;53.570;9.984;2023-12-20T10:38:24;3.83;;;0.65;;
65189;SDS011;51777;53.570;9.984;2023-12-20T10:40:54;1.30;;;0.90;;
65189;SDS011;51777;53.570;9.984;2023-12-20T10:43:24;1.55;;;0.90;;
65189;SDS011;51777;53.570;9.984;2023-12-20T10:45:51;2.70;;;0.82;;
65189;SDS011;51777;53.570;9.984;2023-12-20T10:48:26;0.88;;;0.55;;
65189;SDS011;51777;53.570;9.984;2023-12-20T10:50:55;2.88;;;0.80;;
65189;SDS011;51777;53.570;9.984;2023-12-20T10:53:21;1.17;;;0.70;;
65189;SDS011;51777;53.570;9.984;2023-12-20T10:55:47;1.77;;;0.98;;
65189;SDS011;51777;53.570;9.984;2023-12-20T10:58:15;9.07;;;1.40;;
65189;SDS011;51777;53.570;9.984;2023-12-20T11:00:43;4.25;;;1.20;;
65189;SDS011;51777;53.570;9.984;2023-12-20T11:03:11;3.47;;;1.08;;
65189;SDS011;51777;53.570;9.984;2023-12-20T11:05:46;3.70;;;1.23;;
65189;SDS011;51777;53.570;9.984;2023-12-20T11:08:28;5.55;;;1.10;;
65189;SDS011;51777;53.570;9.984;2023-12-20T11:11:05;4.93;;;1.55;;
65189;SDS011;51777;53.570;9.984;2023-12-20T11:13:36;6.80;;;1.10;;
65189;SDS011;51777;53.570;9.984;2023-12-20T11:16:07;9.25;;;1.60;;
65189;SDS011;51777;53.570;9.984;2023-12-20T11:18:33;6.25;;;1.33;;
65189;SDS011;51777;53.570;9.984;2023-12-20T11:21:02;4.55;;;0.80;;
65189;SDS011;51777;53.570;9.984;2023-12-20T11:23:30;5.43;;;1.15;;
65189;SDS011;51777;53.570;9.984;2023-12-20T11:25:58;7.50;;;1.10;;
65189;SDS011;51777;53.570;9.984;2023-12-20T11:28:24;5.20;;;1.05;;
65189;SDS011;51777;53.570;9.984;2023-12-20T11:30:52;4.78;;;0.95;;
65189;SDS011;51777;53.570;9.984;2023-12-20T11:33:22;11.90;;;1.40;;
65189;SDS011;51777;53.570;9.984;2023-12-20T11:35:55;13.85;;;1.63;;
65189;SDS011;51777;53.570;9.984;2023-12-20T11:38:21;6.38;;;1.40;;
65189;SDS011;51777;53.570;9.984;2023-12-20T11:40:50;8.15;;;1.50;;
65189;SDS011;51777;53.570;9.984;2023-12-20T11:43:35;3.15;;;0.80;;
65189;SDS011;51777;53.570;9.984;2023-12-20T11:46:05;8.23;;;1.55;;
65189;SDS011;51777;53.570;9.984;2023-12-20T11:48:32;4.10;;;1.40;;
65189;SDS011;51777;53.570;9.984;2023-12-20T11:50:59;6.22;;;1.55;;
65189;SDS011;51777;53.570;9.984;2023-12-20T11:53:25;13.10;;;1.90;;
65189;SDS011;51777;53.570;9.984;2023-12-20T11:55:50;10.90;;;2.10;;
65189;SDS011;51777;53.570;9.984;2023-12-20T11:58:16;6.07;;;1.15;;
65189;SDS011;51777;53.570;9.984;2023-12-20T12:00:44;4.07;;;1.55;;
65189;SDS011;51777;53.570;9.984;2023-12-20T12:03:10;14.63;;;1.90;;
65189;SDS011;51777;53.570;9.984;2023-12-20T12:05:35;9.27;;;2.20;;
65189;SDS011;51777;53.570;9.984;2023-12-20T12:08:01;8.98;;;1.42;;
65189;SDS011;51777;53.570;9.984;2023-12-20T12:10:28;7.72;;;1.98;;
65189;SDS011;51777;53.570;9.984;2023-12-20T12:12:54;11.48;;;2.05;;
65189;SDS011;51777;53.570;9.984;2023-12-20T12:15:20;9.25;;;1.77;;
65189;SDS011;51777;53.570;9.984;2023-12-20T12:17:56;11.63;;;1.63;;
65189;SDS011;51777;53.570;9.984;2023-12-20T12:20:30;13.00;;;2.28;;
65189;SDS011;51777;53.570;9.984;2023-12-20T12:25:28;14.50;;;1.73;;
65189;SDS011;51777;53.570;9.984;2023-12-20T12:27:55;17.05;;;2.05;;
65189;SDS011;51777;53.570;9.984;2023-12-20T12:30:21;13.15;;;2.00;;
65189;SDS011;51777;53.570;9.984;2023-12-20T12:32:50;11.57;;;1.98;;
65189;SDS011;51777;53.570;9.984;2023-12-20T12:35:17;8.82;;;1.65;;
65189;SDS011;51777;53.570;9.984;2023-12-20T12:37:42;8.88;;;1.55;;
65189;SDS011;51777;53.570;9.984;2023-12-20T12:40:12;7.80;;;1.38;;
65189;SDS011;51777;53.570;9.984;2023-12-20T12:42:48;22.95;;;2.30;;
65189;SDS011;51777;53.570;9.984;2023-12-20T12:45:14;12.50;;;1.77;;
65189;SDS011;51777;53.570;9.984;2023-12-20T12:47:40;7.03;;;1.30;;
65189;SDS011;51777;53.570;9.984;2023-12-20T12:50:05;11.35;;;2.30;;
65189;SDS011;51777;53.570;9.984;2023-12-20T12:52:31;5.65;;;1.35;;
65189;SDS011;51777;53.570;9.984;2023-12-20T12:54:57;15.55;;;1.83;;
65189;SDS011;51777;53.570;9.984;2023-12-20T12:57:22;12.55;;;1.90;;
65189;SDS011;51777;53.570;9.984;2023-12-20T12:59:49;7.82;;;1.50;;
65189;SDS011;51777;53.570;9.984;2023-12-20T13:02:15;6.25;;;1.45;;
65189;SDS011;51777;53.570;9.984;2023-12-20T13:04:41;13.10;;;2.50;;
65189;SDS011;51777;53.570;9.984;2023-12-20T13:07:21;15.57;;;2.38;;
65189;SDS011;51777;53.570;9.984;2023-12-20T13:09:46;12.25;;;2.53;;
65189;SDS011;51777;53.570;9.984;2023-12-20T13:12:12;9.13;;;1.67;;
65189;SDS011;51777;53.570;9.984;2023-12-20T13:14:38;5.38;;;1.83;;
65189;SDS011;51777;53.570;9.984;2023-12-20T13:17:03;17.17;;;2.33;;
65189;SDS011;51777;53.570;9.984;2023-12-20T13:19:39;8.73;;;1.90;;
65189;SDS011;51777;53.570;9.984;2023-12-20T13:22:04;5.95;;;1.70;;
65189;SDS011;51777;53.570;9.984;2023-12-20T13:24:47;12.45;;;1.77;;
65189;SDS011;51777;53.570;9.984;2023-12-20T13:27:21;17.13;;;2.33;;
65189;SDS011;51777;53.570;9.984;2023-12-20T13:29:47;12.23;;;2.23;;
65189;SDS011;51777;53.570;9.984;2023-12-20T13:32:12;13.95;;;2.17;;
65189;SDS011;51777;53.570;9.984;2023-12-20T13:34:37;14.82;;;2.47;;
65189;SDS011;51777;53.570;9.984;2023-12-20T13:37:03;14.30;;;2.60;;
65189;SDS011;51777;53.570;9.984;2023-12-20T13:39:29;14.85;;;2.35;;
65189;SDS011;51777;53.570;9.984;2023-12-20T13:41:56;17.23;;;2.75;;
65189;SDS011;51777;53.570;9.984;2023-12-20T13:44:22;24.35;;;5.82;;
65189;SDS011;51777;53.570;9.984;2023-12-20T13:46:47;20.17;;;3.35;;
65189;SDS011;51777;53.570;9.984;2023-12-20T13:49:14;15.13;;;2.72;;
65189;SDS011;51777;53.570;9.984;2023-12-20T13:51:40;17.98;;;2.63;;
65189;SDS011;51777;53.570;9.984;2023-12-20T13:54:05;13.73;;;2.55;;
65189;SDS011;51777;53.570;9.984;2023-12-20T13:56:31;12.55;;;3.47;;
65189;SDS011;51777;53.570;9.984;2023-12-20T13:58:56;17.67;;;2.92;;
65189;SDS011;51777;53.570;9.984;2023-12-20T14:01:22;17.27;;;3.17;;
65189;SDS011;51777;53.570;9.984;2023-12-20T14:03:48;7.93;;;2.10;;
65189;SDS011;51777;53.570;9.984;2023-12-20T14:06:13;17.90;;;2.67;;
65189;SDS011;51777;53.570;9.984;2023-12-20T14:08:42;12.48;;;2.08;;
65189;SDS011;51777;53.570;9.984;2023-12-20T14:11:07;31.38;;;4.53;;
65189;SDS011;51777;53.570;9.984;2023-12-20T14:13:33;10.57;;;2.95;;
65189;SDS011;51777;53.570;9.984;2023-12-20T14:15:58;17.40;;;3.17;;
65189;SDS011;51777;53.570;9.984;2023-12-20T14:18:25;22.02;;;4.07;;
65189;SDS011;51777;53.570;9.984;2023-12-20T14:20:50;16.27;;;3.08;;
65189;SDS011;51777;53.570;9.984;2023-12-20T14:23:16;15.00;;;3.33;;
65189;SDS011;51777;53.570;9.984;2023-12-20T14:25:41;18.17;;;3.08;;
65189;SDS011;51777;53.570;9.984;2023-12-20T14:28:07;16.30;;;2.80;;
65189;SDS011;51777;53.570;9.984;2023-12-20T14:30:32;27.45;;;3.55;;
65189;SDS011;51777;53.570;9.984;2023-12-20T14:32:58;6.95;;;1.77;;
65189;SDS011;51777;53.570;9.984;2023-12-20T14:35:25;23.30;;;3.63;;
65189;SDS011;51777;53.570;9.984;2023-12-20T14:37:50;11.40;;;2.72;;
65189;SDS011;51777;53.570;9.984;2023-12-20T14:40:16;18.00;;;3.95;;
65189;SDS011;51777;53.570;9.984;2023-12-20T14:42:42;17.80;;;3.58;;
65189;SDS011;51777;53.570;9.984;2023-12-20T14:45:08;16.05;;;3.47;;